Time;durP1;ratioP1;P1;durP2;ratioP2;P2;SDS_P1;SDS_P2;PMS_P1;PMS_P2;Temp;Humidity;BMP_temperature;BMP_pressure;BME280_temperature;BME280_humidity;BME280_pressure;Samples;Min_cycle;Max_cycle;Signal;HPM_P1;HPM_P2
2023/06/02 00:01:06;;;;;;;3.40;1.50;;;17.80;52.30;;;;;;4998589;28;20038;-76
2023/06/02 00:03:34;;;;;;;1.88;1.17;;;17.70;52.40;;;;;;5031079;28;20030;-75
2023/06/02 00:06:01;;;;;;;2.72;1.30;;;17.70;52.40;;;;;;5015620;28;20081;-77
2023/06/02 00:08:27;;;;;;;2.58;1.40;;;17.70;52.40;;;;;;5014274;28;20561;-76
2023/06/02 00:10:54;;;;;;;2.90;1.50;;;17.70;52.50;;;;;;5014312;28;20033;-76
2023/06/02 00:13:20;;;;;;;2.75;1.30;;;17.60;52.50;;;;;;5014735;28;20034;-77
2023/06/02 00:15:47;;;;;;;2.70;1.27;;;17.60;52.50;;;;;;5015677;28;20030;-76
2023/06/02 00:18:14;;;;;;;2.55;1.40;;;17.60;52.50;;;;;;5030615;28;20088;-78
2023/06/02 00:20:41;;;;;;;1.85;1.30;;;17.60;52.50;;;;;;5047893;28;20037;-77
2023/06/02 00:23:10;;;;;;;1.65;1.30;;;17.60;52.60;;;;;;5048908;28;20438;-77
2023/06/02 00:25:38;;;;;;;2.35;1.30;;;17.60;52.60;;;;;;5016920;28;20038;-77
2023/06/02 00:28:04;;;;;;;3.05;1.65;;;17.50;52.50;;;;;;5030766;28;20506;-77
2023/06/02 00:30:30;;;;;;;2.78;1.33;;;17.50;52.60;;;;;;5014154;28;20060;-77
2023/06/02 00:32:56;;;;;;;4.00;1.63;;;17.50;52.60;;;;;;5014155;28;20436;-77
2023/06/02 00:35:22;;;;;;;2.50;1.10;;;17.50;52.60;;;;;;5046927;28;20033;-77
2023/06/02 00:37:48;;;;;;;3.25;1.50;;;17.40;52.60;;;;;;5015198;28;20034;-78
2023/06/02 00:40:14;;;;;;;2.58;1.42;;;17.40;52.60;;;;;;4997686;28;20041;-77
2023/06/02 00:42:40;;;;;;;1.88;1.00;;;17.40;52.70;;;;;;5014541;28;20056;-77
2023/06/02 00:45:06;;;;;;;2.35;1.30;;;17.30;52.60;;;;;;5047229;28;20045;-78
2023/06/02 00:47:32;;;;;;;4.45;1.50;;;17.30;52.60;;;;;;5030163;28;20097;-79
2023/06/02 00:49:58;;;;;;;3.83;1.73;;;17.30;52.60;;;;;;5015044;28;20113;-77
2023/06/02 00:52:25;;;;;;;3.15;1.45;;;17.30;52.70;;;;;;5014597;28;20116;-77
2023/06/02 00:54:51;;;;;;;2.97;1.38;;;17.30;52.70;;;;;;5030241;28;20483;-76
2023/06/02 00:57:17;;;;;;;2.53;1.40;;;17.30;52.70;;;;;;5013673;28;20038;-76
2023/06/02 00:59:47;;;;;;;2.90;1.55;;;17.30;52.80;;;;;;5014361;28;20348;-75
2023/06/02 01:02:13;;;;;;;3.22;1.40;;;17.20;52.80;;;;;;5013980;28;20033;-76
2023/06/02 01:04:46;;;;;;;2.88;1.80;;;17.20;52.80;;;;;;4997251;28;20080;-78
2023/06/02 01:07:13;;;;;;;2.28;1.50;;;17.20;52.80;;;;;;4997602;28;20073;-78
2023/06/02 01:09:41;;;;;;;1.92;1.50;;;17.10;52.80;;;;;;4997335;28;20034;-77
2023/06/02 01:12:07;;;;;;;2.05;1.40;;;17.10;52.90;;;;;;5015141;28;20040;-78
2023/06/02 01:14:33;;;;;;;2.92;1.42;;;17.10;52.90;;;;;;4997128;28;20029;-77
2023/06/02 01:16:59;;;;;;;3.95;1.58;;;17.10;52.90;;;;;;5013915;28;20460;-78
2023/06/02 01:19:28;;;;;;;2.60;1.30;;;17.10;52.90;;;;;;5013377;28;20030;-78
2023/06/02 01:22:01;;;;;;;2.50;1.42;;;17.10;52.90;;;;;;5013240;28;20029;-76
2023/06/02 01:24:48;;;;;;;3.33;1.45;;;17.00;52.90;;;;;;5045873;28;20067;-77
2023/06/02 01:27:15;;;;;;;1.77;1.27;;;17.00;53.00;;;;;;4997993;28;20034;-76
2023/06/02 01:29:43;;;;;;;2.95;1.30;;;17.00;52.90;;;;;;5046923;28;20445;-77
2023/06/02 01:32:18;;;;;;;2.88;1.40;;;17.00;53.00;;;;;;5012991;28;20386;-77
2023/06/02 01:34:50;;;;;;;3.67;1.60;;;17.00;53.00;;;;;;4996683;28;20033;-76
2023/06/02 01:37:18;;;;;;;3.20;1.40;;;17.00;53.00;;;;;;5013695;28;20121;-77
2023/06/02 01:39:46;;;;;;;3.67;1.60;;;16.90;52.90;;;;;;5045780;28;20030;-76
2023/06/02 01:42:15;;;;;;;2.67;1.65;;;16.90;53.00;;;;;;5013414;28;20040;-76
2023/06/02 01:44:42;;;;;;;3.83;1.40;;;16.90;53.00;;;;;;4996503;28;20383;-76
2023/06/02 01:47:09;;;;;;;2.38;1.50;;;16.90;53.00;;;;;;5029131;28;20080;-76
2023/06/02 01:49:35;;;;;;;1.42;1.20;;;16.90;53.00;;;;;;4995836;28;20030;-76
2023/06/02 01:52:02;;;;;;;3.08;1.50;;;16.90;53.10;;;;;;4996282;28;20029;-78
2023/06/02 01:54:28;;;;;;;1.38;1.20;;;16.80;53.00;;;;;;4996413;28;20042;-77
2023/06/02 01:56:54;;;;;;;2.03;1.25;;;16.80;53.00;;;;;;5012826;28;20037;-79
2023/06/02 01:59:20;;;;;;;2.58;1.60;;;16.80;53.00;;;;;;4996912;28;20038;-76
2023/06/02 02:01:47;;;;;;;4.43;1.50;;;16.80;53.00;;;;;;5012552;28;20034;-77
2023/06/02 02:04:13;;;;;;;1.92;1.50;;;16.80;53.00;;;;;;5012501;28;20068;-76
2023/06/02 02:06:39;;;;;;;3.40;1.60;;;16.80;53.00;;;;;;5012443;28;20117;-77
2023/06/02 02:09:07;;;;;;;2.25;1.40;;;16.70;53.00;;;;;;5014347;28;20061;-78
2023/06/02 02:11:33;;;;;;;2.35;1.30;;;16.70;53.00;;;;;;5029706;28;20037;-77
2023/06/02 02:14:00;;;;;;;2.47;1.48;;;16.70;53.10;;;;;;5013653;28;20069;-77
2023/06/02 02:16:26;;;;;;;3.00;1.58;;;16.70;53.10;;;;;;5013153;28;20119;-77
2023/06/02 02:18:57;;;;;;;1.50;1.30;;;16.70;53.10;;;;;;5045685;28;20096;-78
2023/06/02 02:21:22;;;;;;;2.80;1.50;;;16.60;53.10;;;;;;4997602;28;20040;-77
2023/06/02 02:23:48;;;;;;;1.88;1.27;;;16.60;53.10;;;;;;5013787;28;20034;-76
2023/06/02 02:26:14;;;;;;;2.83;1.50;;;16.60;53.10;;;;;;5045310;28;20181;-76
2023/06/02 02:28:40;;;;;;;2.85;1.50;;;16.60;53.10;;;;;;5012283;28;20045;-76
2023/06/02 02:31:06;;;;;;;1.90;1.50;;;16.60;53.10;;;;;;5044948;28;20065;-75
2023/06/02 02:33:31;;;;;;;2.75;1.55;;;16.50;53.10;;;;;;5012527;28;20068;-77
2023/06/02 02:35:57;;;;;;;2.35;1.65;;;16.50;53.10;;;;;;4995905;28;20038;-79
2023/06/02 02:38:24;;;;;;;2.90;1.40;;;16.50;53.10;;;;;;4996162;28;20034;-78
2023/06/02 02:40:50;;;;;;;2.65;1.55;;;16.50;53.10;;;;;;4997524;28;20438;-78
2023/06/02 02:43:17;;;;;;;1.92;1.35;;;16.50;53.10;;;;;;4996897;28;20034;-77
2023/06/02 02:45:43;;;;;;;3.10;1.70;;;16.50;53.20;;;;;;5045537;28;20037;-77
2023/06/02 02:48:09;;;;;;;2.90;1.42;;;16.40;53.10;;;;;;4995768;28;20045;-78
2023/06/02 02:50:35;;;;;;;2.78;1.48;;;16.40;53.10;;;;;;5028583;28;20037;-78
2023/06/02 02:53:02;;;;;;;2.95;1.42;;;16.40;53.20;;;;;;5028618;28;20088;-78
2023/06/02 02:55:28;;;;;;;2.60;1.42;;;16.40;53.20;;;;;;5013450;28;20477;-76
2023/06/02 02:57:55;;;;;;;1.70;1.40;;;16.40;53.20;;;;;;4996665;28;20034;-77
2023/06/02 03:00:21;;;;;;;3.53;1.55;;;16.40;53.30;;;;;;4995792;28;20061;-78
2023/06/02 03:02:47;;;;;;;1.83;1.30;;;16.40;53.30;;;;;;4995675;28;20072;-78
2023/06/02 03:05:13;;;;;;;3.28;1.50;;;16.40;53.30;;;;;;5012804;28;20030;-78
2023/06/02 03:07:44;;;;;;;2.00;1.30;;;16.40;53.30;;;;;;5011635;28;20053;-77
2023/06/02 03:10:10;;;;;;;2.30;1.40;;;16.30;53.30;;;;;;5044823;28;20033;-80
2023/06/02 03:12:36;;;;;;;2.95;1.50;;;16.30;53.30;;;;;;4995562;28;20058;-77
2023/06/02 03:15:03;;;;;;;2.47;1.33;;;16.30;53.40;;;;;;5012700;28;20125;-77
2023/06/02 03:17:29;;;;;;;3.33;1.75;;;16.30;54.00;;;;;;4996161;28;20038;-77
2023/06/02 03:19:55;;;;;;;2.67;1.40;;;16.20;53.30;;;;;;4995373;28;20045;-77
2023/06/02 03:22:22;;;;;;;1.83;1.23;;;16.20;53.40;;;;;;4979423;28;20032;-77
2023/06/02 03:24:48;;;;;;;2.08;1.38;;;16.20;53.40;;;;;;5029722;28;20378;-77
2023/06/02 03:27:15;;;;;;;2.92;1.63;;;16.20;53.40;;;;;;4998977;28;20045;-77
2023/06/02 03:29:49;;;;;;;1.58;1.23;;;16.20;53.40;;;;;;5000244;28;20212;-78
2023/06/02 03:32:19;;;;;;;1.92;1.38;;;16.20;53.40;;;;;;5015294;28;20033;-78
2023/06/02 03:34:46;;;;;;;2.05;1.33;;;16.20;53.50;;;;;;5015133;28;20038;-79
2023/06/02 03:37:14;;;;;;;2.40;1.40;;;16.10;53.50;;;;;;5048103;28;20557;-78
2023/06/02 03:39:42;;;;;;;3.53;1.50;;;16.10;53.40;;;;;;5016189;28;20404;-77
2023/06/02 03:42:08;;;;;;;3.17;1.35;;;16.10;53.50;;;;;;4999524;28;20124;-78
2023/06/02 03:44:34;;;;;;;2.05;1.20;;;16.10;53.50;;;;;;5015043;28;20096;-77
2023/06/02 03:47:00;;;;;;;1.95;1.30;;;16.10;53.50;;;;;;5015053;28;20025;-76
2023/06/02 03:49:29;;;;;;;2.65;1.42;;;16.10;53.50;;;;;;5047984;28;20038;-75
2023/06/02 03:51:56;;;;;;;2.80;1.48;;;16.10;53.60;;;;;;5016345;28;20049;-77
2023/06/02 03:54:22;;;;;;;2.10;1.42;;;16.10;53.50;;;;;;5031433;28;20471;-76
2023/06/02 03:56:49;;;;;;;1.88;1.30;;;16.10;53.50;;;;;;4998452;28;20125;-76
2023/06/02 03:59:15;;;;;;;3.08;1.40;;;16.10;53.60;;;;;;5030886;28;20034;-76
2023/06/02 04:01:41;;;;;;;2.13;1.35;;;16.00;53.60;;;;;;5014687;28;20400;-76
2023/06/02 04:04:11;;;;;;;2.45;1.50;;;16.00;53.60;;;;;;5014300;28;20030;-78
2023/06/02 04:06:41;;;;;;;2.17;1.20;;;16.00;53.60;;;;;;5015492;28;20128;-77
2023/06/02 04:09:13;;;;;;;1.90;1.25;;;16.00;53.60;;;;;;5030438;28;20038;-76
2023/06/02 04:11:41;;;;;;;2.37;1.40;;;16.00;54.00;;;;;;5047841;28;20042;-76
2023/06/02 04:14:08;;;;;;;2.88;1.42;;;16.00;53.60;;;;;;5014435;28;20033;-77
2023/06/02 04:16:34;;;;;;;1.88;1.23;;;15.90;53.60;;;;;;4998791;28;20127;-78
2023/06/02 04:19:00;;;;;;;2.47;1.38;;;15.90;53.60;;;;;;5047283;28;20038;-78
2023/06/02 04:21:27;;;;;;;2.00;1.20;;;15.90;53.60;;;;;;5014153;28;20044;-77
2023/06/02 04:23:53;;;;;;;2.67;1.40;;;15.90;53.60;;;;;;4998213;28;20038;-77
2023/06/02 04:26:19;;;;;;;1.60;1.20;;;15.90;53.70;;;;;;5014169;28;20034;-78
2023/06/02 04:28:45;;;;;;;3.10;1.50;;;15.90;53.70;;;;;;4998607;28;20068;-78
2023/06/02 04:31:11;;;;;;;2.38;1.40;;;15.90;53.70;;;;;;4998446;28;20034;-77
2023/06/02 04:33:41;;;;;;;2.25;1.25;;;15.80;53.70;;;;;;5030871;28;20026;-77
2023/06/02 04:36:10;;;;;;;2.47;1.48;;;15.80;53.70;;;;;;5045890;28;20386;-77
2023/06/02 04:38:37;;;;;;;2.28;1.40;;;15.90;53.80;;;;;;5013757;28;20026;-78
2023/06/02 04:41:07;;;;;;;2.70;1.52;;;15.90;53.80;;;;;;5013655;28;20034;-78
2023/06/02 04:43:34;;;;;;;2.17;1.38;;;15.80;53.80;;;;;;5047470;28;20033;-79
2023/06/02 04:46:01;;;;;;;2.50;1.27;;;15.80;53.80;;;;;;4998159;28;20034;-85
2023/06/02 04:48:28;;;;;;;4.43;1.67;;;15.80;53.80;;;;;;4998298;28;20038;-77
2023/06/02 04:50:54;;;;;;;2.70;1.77;;;15.80;53.80;;;;;;5013746;28;20041;-78
2023/06/02 04:53:20;;;;;;;2.78;1.42;;;15.80;53.80;;;;;;4998031;28;20038;-78
2023/06/02 04:55:47;;;;;;;2.15;1.25;;;15.80;53.80;;;;;;5013581;28;20113;-77
2023/06/02 04:58:14;;;;;;;2.05;1.30;;;15.80;53.80;;;;;;4997688;28;20038;-78
2023/06/02 05:00:40;;;;;;;2.92;1.30;;;15.80;53.80;;;;;;4997321;28;20041;-77
2023/06/02 05:03:07;;;;;;;1.45;1.20;;;15.70;53.80;;;;;;5046754;28;20124;-77
2023/06/02 05:05:33;;;;;;;3.30;1.45;;;15.70;53.80;;;;;;5014803;28;20061;-78
2023/06/02 05:07:58;;;;;;;2.45;1.50;;;15.70;53.80;;;;;;4997312;28;20054;-77
2023/06/02 05:10:25;;;;;;;1.83;1.30;;;15.70;53.80;;;;;;4997984;28;20157;-78
2023/06/02 05:12:53;;;;;;;2.65;1.50;;;15.70;53.80;;;;;;4998613;28;20411;-80
2023/06/02 05:15:19;;;;;;;2.97;1.40;;;15.70;53.90;;;;;;4997391;28;20030;-79
2023/06/02 05:17:47;;;;;;;3.35;1.25;;;15.70;53.90;;;;;;5047731;28;20435;-75
2023/06/02 05:20:15;;;;;;;2.42;1.35;;;15.70;53.90;;;;;;5013984;28;20507;-76
2023/06/02 05:22:40;;;;;;;2.00;1.23;;;15.70;53.90;;;;;;5013628;28;20034;-78
2023/06/02 05:25:09;;;;;;;2.58;1.50;;;15.70;53.90;;;;;;4998846;28;20383;-78
2023/06/02 05:27:34;;;;;;;2.50;1.30;;;15.70;53.90;;;;;;5014406;28;20156;-78
2023/06/02 05:30:03;;;;;;;2.65;1.50;;;15.70;53.90;;;;;;4997868;28;20026;-78
2023/06/02 05:32:29;;;;;;;2.47;1.20;;;15.70;54.00;;;;;;5013919;28;20048;-78
2023/06/02 05:34:56;;;;;;;2.47;1.30;;;15.70;53.90;;;;;;5013311;28;20041;-81
2023/06/02 05:37:22;;;;;;;3.28;1.48;;;15.70;53.90;;;;;;4981028;28;20356;-79
2023/06/02 05:39:49;;;;;;;3.65;1.48;;;15.70;53.90;;;;;;5029475;28;20042;-77
2023/06/02 05:42:14;;;;;;;2.10;1.40;;;15.70;54.00;;;;;;4997518;28;20133;-78
2023/06/02 05:44:40;;;;;;;2.35;1.40;;;15.70;53.90;;;;;;5013372;28;20034;-78
2023/06/02 05:47:07;;;;;;;4.95;1.75;;;15.70;54.00;;;;;;5013230;28;20051;-79
2023/06/02 05:49:33;;;;;;;2.47;1.48;;;15.70;54.00;;;;;;5013956;28;20546;-78
2023/06/02 05:51:59;;;;;;;1.52;1.17;;;15.70;54.00;;;;;;5012832;28;20030;-78
2023/06/02 05:54:25;;;;;;;3.05;1.30;;;15.70;54.00;;;;;;4996565;28;20107;-79
2023/06/02 05:56:51;;;;;;;2.78;1.48;;;15.70;54.00;;;;;;5012635;28;20030;-78
2023/06/02 05:59:17;;;;;;;2.72;1.25;;;15.70;54.00;;;;;;5012530;28;20065;-78
2023/06/02 06:01:43;;;;;;;2.22;1.30;;;15.70;54.00;;;;;;5012942;28;20128;-78
2023/06/02 06:04:09;;;;;;;3.10;1.40;;;15.70;54.00;;;;;;5012920;28;20149;-78
2023/06/02 06:06:37;;;;;;;3.78;1.40;;;15.70;54.00;;;;;;5046186;28;20033;-78
2023/06/02 06:09:05;;;;;;;3.33;1.27;;;15.70;54.00;;;;;;5014848;28;20049;-78
2023/06/02 06:11:31;;;;;;;4.10;1.33;;;15.70;54.00;;;;;;4996702;28;20120;-78
2023/06/02 06:13:58;;;;;;;3.38;1.67;;;15.70;54.00;;;;;;5012880;28;20489;-78
2023/06/02 06:16:24;;;;;;;3.33;1.40;;;15.70;54.00;;;;;;4997186;28;20026;-77
2023/06/02 06:18:50;;;;;;;2.72;1.30;;;15.70;54.10;;;;;;5012445;28;20391;-77
2023/06/02 06:21:15;;;;;;;1.92;1.17;;;15.70;54.00;;;;;;5013118;28;20092;-79
2023/06/02 06:23:41;;;;;;;1.88;1.10;;;15.70;54.00;;;;;;4980097;28;20088;-78
2023/06/02 06:26:07;;;;;;;2.30;1.20;;;15.70;54.00;;;;;;5012401;28;20033;-79
2023/06/02 06:28:33;;;;;;;1.58;1.20;;;15.70;54.00;;;;;;5012937;28;20029;-78
2023/06/02 06:31:00;;;;;;;3.42;1.27;;;15.70;54.00;;;;;;5012490;28;20088;-78
2023/06/02 06:33:27;;;;;;;3.30;1.38;;;15.80;54.10;;;;;;5012934;28;20470;-78
2023/06/02 06:35:53;;;;;;;2.45;1.33;;;15.80;54.20;;;;;;4996561;28;20030;-80
2023/06/02 06:38:19;;;;;;;2.88;1.35;;;15.70;54.10;;;;;;5028809;28;20146;-78
2023/06/02 06:40:45;;;;;;;1.92;1.23;;;15.80;54.20;;;;;;5012458;28;20119;-79
2023/06/02 06:43:15;;;;;;;2.50;1.40;;;15.80;54.20;;;;;;5046269;28;20034;-78
2023/06/02 06:45:45;;;;;;;1.80;1.20;;;15.80;54.10;;;;;;4997461;28;20034;-77
2023/06/02 06:48:10;;;;;;;3.47;1.90;;;15.80;54.10;;;;;;5045152;28;20560;-79
2023/06/02 06:50:36;;;;;;;3.63;1.60;;;15.80;54.80;;;;;;5012560;28;20076;-79
2023/06/02 06:53:03;;;;;;;2.25;1.23;;;15.80;54.10;;;;;;5012256;28;20092;-79
2023/06/02 06:55:29;;;;;;;2.42;1.30;;;15.90;54.20;;;;;;5028666;28;20113;-78
2023/06/02 06:57:56;;;;;;;3.08;1.20;;;15.80;54.10;;;;;;5029177;28;20034;-77
2023/06/02 07:00:22;;;;;;;2.97;1.40;;;15.90;54.20;;;;;;5015023;28;20096;-80
2023/06/02 07:02:51;;;;;;;2.30;1.40;;;15.90;54.20;;;;;;4999996;28;20026;-80
2023/06/02 07:05:17;;;;;;;2.65;1.40;;;15.90;54.20;;;;;;5015982;28;20125;-79
2023/06/02 07:07:43;;;;;;;2.35;1.20;;;15.90;54.20;;;;;;5031986;28;20487;-79
2023/06/02 07:10:10;;;;;;;2.22;1.33;;;15.90;54.20;;;;;;5048790;28;20025;-77
2023/06/02 07:12:36;;;;;;;2.45;1.35;;;16.00;54.20;;;;;;5032976;28;20033;-77
2023/06/02 07:15:03;;;;;;;3.28;1.40;;;16.00;54.20;;;;;;5000143;28;20048;-77
2023/06/02 07:17:29;;;;;;;2.63;1.40;;;16.00;54.20;;;;;;5017401;28;20042;-77
2023/06/02 07:19:55;;;;;;;2.70;1.40;;;16.00;54.90;;;;;;5000908;28;20034;-78
2023/06/02 07:22:21;;;;;;;2.33;1.38;;;16.00;54.20;;;;;;5004443;28;20038;-79
2023/06/02 07:24:47;;;;;;;3.13;1.40;;;16.00;54.80;;;;;;5017191;28;20030;-77
2023/06/02 07:27:13;;;;;;;2.05;1.02;;;16.10;54.20;;;;;;5016743;28;20084;-77
2023/06/02 07:29:39;;;;;;;2.42;1.23;;;16.10;54.30;;;;;;5016689;28;20458;-79
2023/06/02 07:32:07;;;;;;;2.00;1.30;;;16.10;54.30;;;;;;5017823;28;20065;-76
2023/06/02 07:34:32;;;;;;;2.45;1.52;;;16.10;54.30;;;;;;5015633;28;20447;-76
2023/06/02 07:37:00;;;;;;;2.58;1.60;;;16.10;54.30;;;;;;4983265;28;20037;-76
2023/06/02 07:39:26;;;;;;;1.77;1.17;;;16.10;54.30;;;;;;5015821;28;20128;-75
2023/06/02 07:41:52;;;;;;;2.80;1.30;;;16.20;55.00;;;;;;5015960;28;20026;-76
2023/06/02 07:44:18;;;;;;;2.08;1.23;;;16.20;54.30;;;;;;5015595;28;20036;-76
2023/06/02 07:46:45;;;;;;;3.33;1.55;;;16.20;54.30;;;;;;5015431;28;20041;-80
2023/06/02 07:49:12;;;;;;;3.65;1.50;;;16.20;54.30;;;;;;5048997;28;20479;-78
2023/06/02 07:51:39;;;;;;;2.10;1.20;;;16.20;54.30;;;;;;4998902;28;20026;-78
2023/06/02 07:54:05;;;;;;;1.55;1.30;;;16.20;54.30;;;;;;5017506;28;20059;-77
2023/06/02 07:56:31;;;;;;;3.35;1.40;;;16.30;54.40;;;;;;5016313;28;20148;-77
2023/06/02 07:58:57;;;;;;;3.10;1.60;;;16.30;54.40;;;;;;5048047;28;20151;-77
2023/06/02 08:01:22;;;;;;;3.05;1.30;;;16.30;54.30;;;;;;5015145;28;20572;-77
2023/06/02 08:03:48;;;;;;;2.22;1.30;;;16.30;54.30;;;;;;4998751;28;20394;-76
2023/06/02 08:06:14;;;;;;;2.15;1.27;;;16.40;54.40;;;;;;5016362;28;20055;-77
2023/06/02 08:08:40;;;;;;;2.83;1.35;;;16.30;54.40;;;;;;5014545;28;20060;-77
2023/06/02 08:11:06;;;;;;;2.50;1.30;;;16.40;54.40;;;;;;5015997;28;20489;-77
2023/06/02 08:13:32;;;;;;;3.40;1.60;;;16.40;54.40;;;;;;4982126;28;20032;-77
2023/06/02 08:15:59;;;;;;;2.83;1.55;;;16.40;54.50;;;;;;5015027;28;20439;-77
2023/06/02 08:18:25;;;;;;;3.03;1.23;;;16.40;54.40;;;;;;5015327;28;20196;-77
2023/06/02 08:20:51;;;;;;;3.30;1.35;;;16.40;54.50;;;;;;5014569;28;20096;-79
2023/06/02 08:23:17;;;;;;;1.77;1.17;;;16.40;54.50;;;;;;5048098;28;20030;-78
2023/06/02 08:25:44;;;;;;;3.38;1.40;;;16.50;54.50;;;;;;4998567;28;20022;-78
2023/06/02 08:28:11;;;;;;;2.88;1.30;;;16.50;54.50;;;;;;5047480;28;20038;-78
2023/06/02 08:30:37;;;;;;;2.50;1.48;;;16.50;54.50;;;;;;4982113;28;20037;-78
2023/06/02 08:33:09;;;;;;;3.80;1.63;;;16.50;54.50;;;;;;4998214;28;20075;-78
2023/06/02 08:35:36;;;;;;;3.40;1.48;;;16.50;54.50;;;;;;4999520;28;20034;-78
2023/06/02 08:38:03;;;;;;;2.88;1.38;;;16.60;54.60;;;;;;4997761;28;20030;-78
2023/06/02 08:40:39;;;;;;;2.95;1.38;;;16.60;54.60;;;;;;5030844;28;20045;-77
2023/06/02 08:43:08;;;;;;;3.50;1.40;;;16.60;54.60;;;;;;5030953;28;20121;-77
2023/06/02 08:45:35;;;;;;;3.45;1.33;;;16.70;54.60;;;;;;5030191;28;20026;-78
2023/06/02 08:48:05;;;;;;;4.47;1.50;;;16.60;54.60;;;;;;5014802;28;20033;-77
2023/06/02 08:50:35;;;;;;;5.78;1.80;;;16.70;54.70;;;;;;5016079;28;20037;-77
2023/06/02 08:53:06;;;;;;;3.58;1.40;;;16.70;54.70;;;;;;5014818;28;20038;-77
2023/06/02 08:55:35;;;;;;;1.98;1.20;;;16.80;54.70;;;;;;5015101;28;20060;-77
2023/06/02 08:58:01;;;;;;;2.58;1.35;;;16.70;54.60;;;;;;5014211;28;20041;-78
2023/06/02 09:00:27;;;;;;;2.30;1.38;;;16.80;54.70;;;;;;4997663;28;20045;-78
2023/06/02 09:02:53;;;;;;;2.78;1.48;;;16.80;54.70;;;;;;4997382;28;20455;-78
2023/06/02 09:05:19;;;;;;;2.88;1.40;;;16.90;54.80;;;;;;4997625;28;20030;-77
2023/06/02 09:07:47;;;;;;;3.60;1.63;;;16.90;54.80;;;;;;5014896;28;20042;-76
2023/06/02 09:10:30;;;;;;;3.13;1.67;;;16.90;54.70;;;;;;5016304;28;20036;-77
2023/06/02 09:12:56;;;;;;;2.20;1.38;;;16.90;54.80;;;;;;5033370;28;20042;-77
2023/06/02 09:15:23;;;;;;;2.15;1.40;;;17.00;54.70;;;;;;5000797;28;20129;-78
2023/06/02 09:17:49;;;;;;;2.90;1.38;;;16.90;54.60;;;;;;5030039;28;20041;-76
2023/06/02 09:20:15;;;;;;;2.53;1.30;;;17.00;54.60;;;;;;5013243;28;20044;-76
2023/06/02 09:22:55;;;;;;;2.72;1.50;;;17.00;54.70;;;;;;5029015;28;20038;-77
2023/06/02 09:25:22;;;;;;;4.25;1.40;;;17.10;54.80;;;;;;5014057;28;20092;-78
2023/06/02 09:27:53;;;;;;;3.47;1.50;;;17.10;54.70;;;;;;5013972;28;20426;-77
2023/06/02 09:30:19;;;;;;;2.25;1.40;;;17.10;54.70;;;;;;5029528;28;20467;-77
2023/06/02 09:32:59;;;;;;;2.20;1.40;;;17.10;54.60;;;;;;5014299;28;20053;-77
2023/06/02 09:35:42;;;;;;;2.72;1.40;;;17.20;54.70;;;;;;5013009;28;20029;-77
2023/06/02 09:38:13;;;;;;;3.70;1.45;;;17.20;54.60;;;;;;5029703;28;20029;-77
2023/06/02 09:40:40;;;;;;;3.30;1.48;;;17.20;54.50;;;;;;5029618;28;20475;-79
2023/06/02 09:43:11;;;;;;;3.92;1.80;;;17.30;54.50;;;;;;5029954;28;20041;-77
2023/06/02 09:45:48;;;;;;;3.05;1.40;;;17.30;54.60;;;;;;5014239;28;20037;-80
2023/06/02 09:48:24;;;;;;;3.38;1.45;;;17.30;54.50;;;;;;5046725;28;20412;-77
2023/06/02 09:50:50;;;;;;;2.35;1.40;;;17.40;54.60;;;;;;5013838;28;20026;-77
2023/06/02 09:53:22;;;;;;;1.98;1.50;;;17.40;54.50;;;;;;5045791;28;20084;-77
2023/06/02 09:55:48;;;;;;;2.20;1.30;;;17.40;54.40;;;;;;5029130;28;20053;-78
2023/06/02 09:58:14;;;;;;;3.40;1.65;;;17.50;54.50;;;;;;5028911;28;20025;-77
2023/06/02 10:00:40;;;;;;;2.72;1.60;;;17.50;54.40;;;;;;5014121;28;20042;-78
2023/06/02 10:03:07;;;;;;;3.88;1.50;;;17.60;54.40;;;;;;4996431;28;20084;-78
2023/06/02 10:05:34;;;;;;;2.08;1.38;;;17.60;54.40;;;;;;5013064;28;20069;-77
2023/06/02 10:08:37;;;;;;;4.32;1.50;;;17.60;54.40;;;;;;5045078;28;20054;-78
2023/06/02 10:11:23;;;;;;;2.88;1.40;;;17.70;54.50;;;;;;5012398;28;20030;-79
2023/06/02 10:14:11;;;;;;;2.70;1.30;;;17.70;54.40;;;;;;4996986;28;20061;-77
2023/06/02 10:17:14;;;;;;;3.25;1.40;;;17.80;54.30;;;;;;5012955;28;20040;-78
2023/06/02 10:20:17;;;;;;;2.17;1.38;;;17.80;54.40;;;;;;5012943;28;20034;-87
2023/06/02 10:23:20;;;;;;;2.83;1.40;;;17.90;54.30;;;;;;5012475;28;20041;-77
2023/06/02 10:26:03;;;;;;;2.55;1.35;;;17.90;54.30;;;;;;5013268;28;20033;-78
2023/06/02 10:28:30;;;;;;;3.35;1.50;;;18.00;54.20;;;;;;5045486;28;20038;-77
2023/06/02 10:31:11;;;;;;;2.28;1.58;;;18.00;54.20;;;;;;4997022;28;20120;-78
2023/06/02 10:33:48;;;;;;;2.20;1.50;;;18.10;54.30;;;;;;5013445;28;20032;-77
2023/06/02 10:36:17;;;;;;;2.90;1.67;;;18.10;54.30;;;;;;5016689;28;20073;-78
2023/06/02 10:38:44;;;;;;;2.97;1.80;;;18.10;54.20;;;;;;5017134;28;20504;-78
2023/06/02 10:41:10;;;;;;;3.13;1.52;;;18.10;54.20;;;;;;5050251;28;20038;-78
2023/06/02 10:43:39;;;;;;;2.97;1.73;;;18.20;54.20;;;;;;5016339;28;20034;-79
2023/06/02 10:46:20;;;;;;;2.72;1.58;;;18.30;54.20;;;;;;4984391;28;20038;-78
2023/06/02 10:48:47;;;;;;;2.10;1.50;;;18.30;54.20;;;;;;5033576;28;20067;-79
2023/06/02 10:51:13;;;;;;;3.97;1.85;;;18.40;54.20;;;;;;5016644;28;20165;-79
2023/06/02 10:54:12;;;;;;;3.40;1.60;;;18.40;54.10;;;;;;5000129;28;20098;-77
2023/06/02 10:56:43;;;;;;;2.55;1.40;;;18.40;54.20;;;;;;4989149;28;20042;-77
2023/06/02 10:59:10;;;;;;;1.88;1.50;;;18.50;54.10;;;;;;5016420;28;20038;-76
2023/06/02 11:01:48;;;;;;;2.55;1.60;;;18.60;54.10;;;;;;5016476;28;20112;-77
2023/06/02 11:04:24;;;;;;;2.92;1.60;;;18.60;54.10;;;;;;5001038;28;20026;-78
2023/06/02 11:07:17;;;;;;;3.63;1.70;;;18.60;54.00;;;;;;5032280;28;20034;-76
2023/06/02 11:09:45;;;;;;;2.30;1.40;;;18.70;54.00;;;;;;5049500;28;20463;-76
2023/06/02 11:12:12;;;;;;;4.00;1.77;;;18.70;53.90;;;;;;4999387;28;20034;-78
2023/06/02 11:15:04;;;;;;;3.63;1.52;;;18.80;54.00;;;;;;4999882;28;20034;-76
2023/06/02 11:17:30;;;;;;;3.58;1.60;;;18.80;54.00;;;;;;5017722;28;20462;-77
2023/06/02 11:19:57;;;;;;;3.20;1.45;;;18.80;53.80;;;;;;5031960;28;20498;-75
2023/06/02 11:22:24;;;;;;;3.25;1.65;;;18.90;53.90;;;;;;4999756;28;20037;-75
2023/06/02 11:24:51;;;;;;;2.95;1.42;;;18.90;53.90;;;;;;5032776;28;20079;-76
2023/06/02 11:27:18;;;;;;;3.25;1.58;;;19.00;53.90;;;;;;5015092;28;20034;-75
2023/06/02 11:29:44;;;;;;;2.22;1.50;;;19.00;54.00;;;;;;4999693;28;20022;-76
2023/06/02 11:32:13;;;;;;;3.67;1.83;;;19.10;53.80;;;;;;5031967;28;20018;-74
2023/06/02 11:34:39;;;;;;;3.67;1.60;;;19.10;53.80;;;;;;4999459;28;20041;-79
2023/06/02 11:37:16;;;;;;;3.63;1.63;;;19.20;53.80;;;;;;4999094;28;20034;-75
2023/06/02 11:39:55;;;;;;;3.17;1.73;;;19.20;53.70;;;;;;5016885;28;20060;-76
2023/06/02 11:42:35;;;;;;;2.65;1.63;;;19.30;53.70;;;;;;5031775;28;20030;-76
2023/06/02 11:45:01;;;;;;;2.72;1.70;;;19.30;53.70;;;;;;5030767;28;20030;-75
2023/06/02 11:47:27;;;;;;;3.42;1.75;;;19.30;53.60;;;;;;5014982;28;20541;-75
2023/06/02 11:49:53;;;;;;;3.13;1.60;;;19.40;53.60;;;;;;5016307;28;20091;-74
2023/06/02 11:52:19;;;;;;;2.70;1.80;;;19.40;53.50;;;;;;4998727;28;20376;-75
2023/06/02 11:54:53;;;;;;;3.03;1.48;;;19.50;53.50;;;;;;4998468;28;20026;-76
2023/06/02 11:57:29;;;;;;;2.80;1.50;;;19.50;53.50;;;;;;5031492;28;20064;-75
2023/06/02 12:00:15;;;;;;;3.40;2.10;;;19.60;53.50;;;;;;5014883;28;20323;-76
2023/06/02 12:02:52;;;;;;;2.78;1.60;;;19.60;53.40;;;;;;4999646;28;20026;-76
2023/06/02 12:05:32;;;;;;;3.42;1.80;;;19.60;53.40;;;;;;5049034;28;20034;-76
2023/06/02 12:08:20;;;;;;;2.65;1.70;;;19.70;53.40;;;;;;5016209;28;20057;-75
2023/06/02 12:10:46;;;;;;;3.08;1.60;;;19.70;53.30;;;;;;5014573;28;20546;-76
2023/06/02 12:13:29;;;;;;;2.67;1.60;;;19.70;53.20;;;;;;4999098;28;20455;-74
2023/06/02 12:15:57;;;;;;;2.22;1.40;;;19.80;53.30;;;;;;5015260;28;20038;-75
2023/06/02 12:18:41;;;;;;;4.07;1.85;;;19.80;53.10;;;;;;4998855;28;20033;-75
2023/06/02 12:21:25;;;;;;;2.58;1.55;;;19.90;53.20;;;;;;4999031;28;20096;-76
2023/06/02 12:23:53;;;;;;;3.00;1.50;;;19.90;53.20;;;;;;5016530;28;20026;-75
2023/06/02 12:26:20;;;;;;;3.63;1.60;;;20.00;53.10;;;;;;4997997;28;20038;-76
2023/06/02 12:28:46;;;;;;;2.78;1.63;;;20.00;53.10;;;;;;5015395;28;20042;-80
2023/06/02 12:31:14;;;;;;;4.45;1.67;;;20.00;53.10;;;;;;5030928;28;20463;-75
2023/06/02 12:33:40;;;;;;;5.32;1.70;;;20.00;53.00;;;;;;5015056;28;20056;-75
2023/06/02 12:36:09;;;;;;;2.08;1.42;;;20.10;53.00;;;;;;4998062;28;20042;-75
2023/06/02 12:38:35;;;;;;;2.60;1.65;;;20.10;53.00;;;;;;5015056;28;20054;-78
2023/06/02 12:41:01;;;;;;;3.65;1.70;;;20.20;53.00;;;;;;4998642;28;20428;-76
2023/06/02 12:43:27;;;;;;;2.92;1.60;;;20.20;53.00;;;;;;5030544;28;20112;-77
2023/06/02 12:45:52;;;;;;;2.83;1.60;;;20.20;52.90;;;;;;5014955;28;20126;-76
2023/06/02 12:48:19;;;;;;;2.53;1.63;;;20.30;53.00;;;;;;4997414;28;20040;-76
2023/06/02 12:50:45;;;;;;;4.15;1.85;;;20.30;52.90;;;;;;4998098;28;20041;-76
2023/06/02 12:53:11;;;;;;;2.38;1.55;;;20.40;52.90;;;;;;5015854;28;20403;-76
2023/06/02 12:55:37;;;;;;;3.45;1.85;;;20.40;52.90;;;;;;5014411;28;20034;-79